Time;durP1;ratioP1;P1;durP2;ratioP2;P2;SDS_P1;SDS_P2;PMS_P1;PMS_P2;Temp;Humidity;BMP_temperature;BMP_pressure;BME280_temperature;BME280_humidity;BME280_pressure;Samples;Min_cycle;Max_cycle;Signal;HPM_P1;HPM_P2
2022/03/13 00:00:44;;;;;;;;;27.00;24.00;;;;;21.45;34.94;102090.05;110376;1261;19025;-48
2022/03/13 00:03:14;;;;;;;;;27.00;22.00;;;;;21.44;34.91;102082.98;110358;1262;18913;-50
2022/03/13 00:05:42;;;;;;;;;24.67;24.00;;;;;21.43;34.80;102084.17;110384;1262;19469;-49
2022/03/13 00:08:10;;;;;;;;;20.00;20.00;;;;;21.44;34.76;102084.31;110429;1261;18811;-50
2022/03/13 00:10:37;;;;;;;;;21.67;21.00;;;;;21.44;34.78;102087.42;110448;1262;19011;-50
2022/03/13 00:13:04;;;;;;;;;26.67;24.00;;;;;21.43;34.97;102090.17;110427;1262;21111;-51
2022/03/13 00:15:32;;;;;;;;;24.67;23.67;;;;;21.43;35.04;102090.00;110388;1261;18746;-50
2022/03/13 00:18:01;;;;;;;;;24.00;22.67;;;;;21.44;34.84;102091.23;110380;1261;18942;-50
2022/03/13 00:20:28;;;;;;;;;25.33;22.33;;;;;21.44;34.72;102090.80;110348;1261;20210;-50
2022/03/13 00:22:57;;;;;;;;;25.00;23.67;;;;;21.43;34.80;102089.46;110463;1262;18687;-50
2022/03/13 00:25:24;;;;;;;;;28.67;25.33;;;;;21.43;34.83;102089.11;110298;1262;18834;-49
2022/03/13 00:27:51;;;;;;;;;24.00;21.00;;;;;21.43;35.00;102089.66;110350;1262;19747;-49
2022/03/13 00:30:19;;;;;;;;;27.67;24.00;;;;;21.43;34.91;102094.95;110386;1261;20111;-48
2022/03/13 00:32:46;;;;;;;;;27.00;22.50;;;;;21.44;34.83;102095.61;110386;1262;18866;-49
2022/03/13 00:35:14;;;;;;;;;27.33;25.33;;;;;21.43;34.71;102096.02;110409;1261;19547;-48
2022/03/13 00:37:41;;;;;;;;;25.00;24.00;;;;;21.44;34.69;102098.67;110270;1264;18739;-49
2022/03/13 00:40:08;;;;;;;;;26.33;22.00;;;;;21.44;34.81;102093.42;110217;1263;18762;-49
2022/03/13 00:42:35;;;;;;;;;21.50;21.50;;;;;21.44;34.85;102092.98;110251;1264;19630;-49
2022/03/13 00:45:03;;;;;;;;;26.67;21.67;;;;;21.44;34.88;102094.14;110230;1264;22114;-49
2022/03/13 00:47:30;;;;;;;;;24.00;23.50;;;;;21.44;34.79;102088.89;110236;1264;18780;-50
2022/03/13 00:49:57;;;;;;;;;26.33;25.00;;;;;21.42;34.63;102089.92;110249;1265;20140;-49
2022/03/13 00:52:24;;;;;;;;;27.33;24.00;;;;;21.42;34.62;102087.61;110200;1263;18899;-49
2022/03/13 00:54:51;;;;;;;;;27.50;22.00;;;;;21.43;34.82;102085.33;110238;1264;18990;-48
2022/03/13 00:57:19;;;;;;;;;26.00;24.33;;;;;21.42;34.61;102081.19;110261;1264;22793;-49
2022/03/13 00:59:46;;;;;;;;;27.00;22.00;;;;;21.42;34.64;102084.51;110198;1264;18692;-49
2022/03/13 01:02:13;;;;;;;;;24.33;21.67;;;;;21.41;34.89;102084.23;110256;1264;20790;-50
2022/03/13 01:04:40;;;;;;;;;26.67;24.00;;;;;21.42;34.67;102083.27;110301;1264;19474;-49
2022/03/13 01:07:08;;;;;;;;;24.50;24.00;;;;;21.41;34.94;102089.50;110241;1265;18679;-49
2022/03/13 01:09:36;;;;;;;;;29.33;24.33;;;;;21.41;34.79;102084.27;110260;1264;18942;-50
2022/03/13 01:12:04;;;;;;;;;25.00;22.00;;;;;21.40;34.89;102080.16;110246;1263;19623;-48
2022/03/13 01:14:33;;;;;;;;;34.33;26.33;;;;;21.40;34.92;102078.50;110232;1264;20933;-49
2022/03/13 01:17:00;;;;;;;;;25.67;24.00;;;;;21.40;34.79;102079.39;110303;1264;19270;-49
2022/03/13 01:19:27;;;;;;;;;32.67;24.00;;;;;21.40;34.71;102078.33;109848;1264;511813;-49
2022/03/13 01:21:55;;;;;;;;;27.33;24.00;;;;;21.39;34.67;102072.95;110242;1264;18884;-50
2022/03/13 01:24:22;;;;;;;;;22.00;20.00;;;;;21.40;34.89;102076.68;110222;1265;18901;-51
2022/03/13 01:26:49;;;;;;;;;24.50;24.00;;;;;21.41;34.76;102073.90;110214;1265;21839;-49
2022/03/13 01:29:17;;;;;;;;;24.00;22.00;;;;;21.39;34.66;102072.95;110244;1264;18717;-50
2022/03/13 01:31:44;;;;;;;;;32.00;26.50;;;;;21.39;34.80;102073.49;110161;1264;18954;-52
2022/03/13 01:34:11;;;;;;;;;24.00;23.50;;;;;21.39;34.90;102069.86;110179;1264;19932;-50
2022/03/13 01:36:39;;;;;;;;;29.67;27.33;;;;;21.39;34.59;102071.14;110212;1264;19102;-48
2022/03/13 01:39:06;;;;;;;;;24.33;24.00;;;;;21.40;34.65;102069.98;110229;1264;18957;-48
2022/03/13 01:41:35;;;;;;;;;26.33;24.33;;;;;21.40;34.77;102067.59;110205;1265;19827;-49
2022/03/13 01:44:02;;;;;;;;;28.00;24.33;;;;;21.39;34.82;102062.94;110259;1264;18739;-50
2022/03/13 01:46:30;;;;;;;;;23.67;21.00;;;;;21.39;34.75;102065.32;110186;1264;18800;-49
2022/03/13 01:48:58;;;;;;;;;28.33;26.00;;;;;21.39;34.95;102060.58;110185;1264;19530;-49
2022/03/13 01:51:25;;;;;;;;;28.67;24.00;;;;;21.38;34.98;102062.02;110198;1264;19670;-49
2022/03/13 01:53:52;;;;;;;;;27.67;24.67;;;;;21.39;34.74;102060.96;110215;1264;18990;-46
2022/03/13 01:56:20;;;;;;;;;24.00;21.00;;;;;21.40;34.80;102061.61;110193;1264;20017;-54
2022/03/13 01:58:48;;;;;;;;;24.50;23.00;;;;;21.38;34.81;102061.94;110268;1264;19168;-49
2022/03/13 02:01:15;;;;;;;;;27.00;24.00;;;;;21.40;34.80;102064.38;110231;1264;18789;-47
2022/03/13 02:03:42;;;;;;;;;30.00;26.33;;;;;21.40;34.78;102058.17;110213;1264;19910;-50
2022/03/13 02:06:09;;;;;;;;;25.33;23.67;;;;;21.39;34.90;102056.05;110244;1264;19623;-50
2022/03/13 02:08:37;;;;;;;;;28.00;25.00;;;;;21.38;34.81;102056.69;110197;1264;18929;-50
2022/03/13 02:11:04;;;;;;;;;28.00;26.00;;;;;21.39;34.68;102058.26;110301;1264;19702;-48
2022/03/13 02:13:34;;;;;;;;;28.00;24.33;;;;;21.36;34.58;102055.67;110241;1264;19359;-51
2022/03/13 02:16:01;;;;;;;;;30.67;29.00;;;;;21.38;34.76;102059.45;110210;1264;18805;-49
2022/03/13 02:18:29;;;;;;;;;31.00;27.00;;;;;21.38;34.79;102061.05;110207;1264;20942;-49
2022/03/13 02:20:56;;;;;;;;;30.00;25.00;;;;;21.38;34.66;102061.63;110223;1264;18721;-48
2022/03/13 02:23:23;;;;;;;;;25.00;23.00;;;;;21.39;34.61;102063.20;110197;1264;21090;-49
2022/03/13 02:25:50;;;;;;;;;27.33;25.33;;;;;21.38;34.54;102065.75;110268;1264;19985;-50
2022/03/13 02:28:18;;;;;;;;;30.50;26.50;;;;;21.37;34.88;102064.25;110205;1263;22219;-48
2022/03/13 02:30:45;;;;;;;;;26.67;25.00;;;;;21.37;34.73;102062.77;110212;1264;22402;-49
2022/03/13 02:33:12;;;;;;;;;31.33;27.33;;;;;21.38;34.64;102064.94;110231;1264;23387;-51
2022/03/13 02:35:40;;;;;;;;;31.33;27.00;;;;;21.37;34.53;102067.32;110214;1264;18767;-48
2022/03/13 02:38:07;;;;;;;;;27.00;25.33;;;;;21.37;34.74;102062.50;110278;1265;19257;-48
2022/03/13 02:40:34;;;;;;;;;27.67;26.00;;;;;21.37;34.55;102066.29;110256;1264;19464;-49
2022/03/13 02:43:02;;;;;;;;;32.00;27.00;;;;;21.37;34.62;102067.14;110197;1264;20304;-48
2022/03/13 02:45:29;;;;;;;;;29.33;26.33;;;;;21.37;34.63;102067.75;110199;1264;18849;-48
2022/03/13 02:47:56;;;;;;;;;36.33;30.00;;;;;21.37;34.57;102068.33;110161;1264;22226;-50
2022/03/13 02:50:24;;;;;;;;;30.00;26.67;;;;;21.37;34.82;102064.30;110193;1264;18775;-48
2022/03/13 02:52:51;;;;;;;;;32.67;29.33;;;;;21.36;34.66;102059.25;110271;1264;18817;-49
2022/03/13 02:55:19;;;;;;;;;29.00;26.67;;;;;21.36;34.73;102060.15;110229;1264;19612;-49
2022/03/13 02:57:46;;;;;;;;;34.00;27.50;;;;;21.37;34.76;102060.83;110198;1264;18696;-49
2022/03/13 03:00:14;;;;;;;;;35.00;31.67;;;;;21.36;34.71;102057.86;110229;1265;19017;-49
2022/03/13 03:02:41;;;;;;;;;28.33;26.33;;;;;21.36;34.63;102058.55;110225;1264;19752;-50
2022/03/13 03:05:08;;;;;;;;;29.00;26.00;;;;;21.35;34.75;102061.88;110290;1264;19359;-49
2022/03/13 03:07:36;;;;;;;;;29.67;25.00;;;;;21.35;34.72;102061.20;110237;1263;18914;-49
2022/03/13 03:10:03;;;;;;;;;30.67;27.33;;;;;21.36;34.61;102060.92;110285;1265;19557;-50
2022/03/13 03:12:30;;;;;;;;;28.00;27.67;;;;;21.35;34.89;102063.20;110226;1265;23366;-50
2022/03/13 03:14:58;;;;;;;;;26.00;25.33;;;;;21.36;34.84;102063.11;110236;1263;18828;-49
2022/03/13 03:17:25;;;;;;;;;31.33;26.67;;;;;21.36;34.65;102067.27;110271;1264;19510;-49
2022/03/13 03:19:52;;;;;;;;;32.00;27.00;;;;;21.34;34.53;102060.17;110268;1264;18753;-50
2022/03/13 03:22:19;;;;;;;;;35.33;29.67;;;;;21.34;34.81;102059.77;110234;1264;20385;-48
2022/03/13 03:24:48;;;;;;;;;26.33;24.67;;;;;21.36;34.59;102056.18;110235;1264;19823;-49
2022/03/13 03:27:16;;;;;;;;;32.00;27.00;;;;;21.34;34.90;102059.05;110216;1264;18758;-48
2022/03/13 03:29:44;;;;;;;;;35.50;32.50;;;;;21.33;34.70;102057.16;110203;1264;18766;-49
2022/03/13 03:32:11;;;;;;;;;29.67;27.00;;;;;21.33;34.76;102060.23;110254;1264;19607;-49
2022/03/13 03:34:39;;;;;;;;;35.50;29.00;;;;;21.33;34.92;102064.61;110264;1264;18767;-49
2022/03/13 03:37:06;;;;;;;;;30.50;26.50;;;;;21.34;34.79;102068.19;110235;1264;20649;-50
2022/03/13 03:39:33;;;;;;;;;29.33;27.33;;;;;21.33;34.66;102073.16;110230;1264;19477;-49
2022/03/13 03:42:02;;;;;;;;;32.00;29.33;;;;;21.34;34.83;102074.20;110256;1264;18730;-49
2022/03/13 03:44:29;;;;;;;;;25.50;23.00;;;;;21.33;34.76;102073.38;110260;1264;22326;-48
2022/03/13 03:46:56;;;;;;;;;38.00;30.33;;;;;21.33;34.87;102074.11;110310;1264;19535;-50
2022/03/13 03:49:24;;;;;;;;;30.33;28.00;;;;;21.32;34.84;102069.83;110224;1264;19069;-50
2022/03/13 03:51:51;;;;;;;;;29.33;26.33;;;;;21.33;34.76;102069.02;110249;1264;18821;-50
2022/03/13 03:54:18;;;;;;;;;29.00;27.00;;;;;21.32;34.84;102068.67;110240;1265;19491;-48
2022/03/13 03:56:45;;;;;;;;;36.00;30.67;;;;;21.32;34.65;102065.06;110254;1264;18729;-49
2022/03/13 03:59:12;;;;;;;;;35.33;31.00;;;;;21.32;34.71;102065.45;110320;1265;18817;-49
2022/03/13 04:01:40;;;;;;;;;32.67;28.33;;;;;21.32;34.70;102066.89;110230;1264;19460;-49
2022/03/13 04:04:07;;;;;;;;;33.00;29.00;;;;;21.32;34.52;102066.12;110231;1264;18977;-49
2022/03/13 04:06:37;;;;;;;;;36.33;32.33;;;;;21.32;34.68;102069.25;110235;1265;18862;-50
2022/03/13 04:09:04;;;;;;;;;31.67;29.00;;;;;21.33;34.81;102069.71;110326;1262;19626;-50
2022/03/13 04:11:32;;;;;;;;;30.00;28.00;;;;;21.32;34.83;102065.98;110317;1262;18793;-49
2022/03/13 04:13:59;;;;;;;;;34.33;30.00;;;;;21.32;34.70;102064.34;110321;1262;18817;-49
2022/03/13 04:16:26;;;;;;;;;31.33;29.00;;;;;21.33;34.59;102062.80;110296;1262;19792;-50
2022/03/13 04:18:54;;;;;;;;;32.00;28.50;;;;;21.33;34.63;102057.56;110336;1261;18862;-50
2022/03/13 04:21:22;;;;;;;;;32.00;31.00;;;;;21.32;34.66;102058.03;110369;1262;18904;-49
2022/03/13 04:23:49;;;;;;;;;37.00;33.00;;;;;21.32;34.73;102058.40;110261;1262;19518;-48
2022/03/13 04:26:16;;;;;;;;;30.50;27.00;;;;;21.33;34.65;102063.56;110284;1262;18916;-48
2022/03/13 04:28:44;;;;;;;;;35.33;32.67;;;;;21.32;34.67;102065.29;110317;1262;19374;-49
2022/03/13 04:31:13;;;;;;;;;31.00;28.00;;;;;21.32;34.71;102068.33;110272;1262;22109;-51
2022/03/13 04:33:40;;;;;;;;;33.00;28.00;;;;;21.32;34.55;102068.36;110287;1261;18741;-49
2022/03/13 04:36:13;;;;;;;;;31.00;28.00;;;;;21.31;34.59;102069.14;110312;1262;19069;-49
2022/03/13 04:38:41;;;;;;;;;33.00;30.67;;;;;21.31;34.48;102072.83;110232;1262;22785;-49
2022/03/13 04:41:08;;;;;;;;;32.00;28.67;;;;;21.31;34.78;102072.99;110332;1262;18773;-49
2022/03/13 04:43:35;;;;;;;;;36.67;31.67;;;;;21.32;34.63;102071.70;110277;1262;22582;-48
2022/03/13 04:46:03;;;;;;;;;35.67;33.33;;;;;21.31;34.75;102073.95;110304;1262;19480;-49
2022/03/13 04:48:32;;;;;;;;;30.50;28.00;;;;;21.31;34.51;102077.73;110271;1262;18943;-52
2022/03/13 04:51:00;;;;;;;;;34.33;27.33;;;;;21.31;34.67;102074.70;110304;1262;18821;-49
2022/03/13 04:53:27;;;;;;;;;33.33;32.00;;;;;21.31;34.56;102076.84;110317;1262;21029;-49
2022/03/13 04:55:55;;;;;;;;;38.33;34.67;;;;;21.30;34.88;102074.74;110293;1262;18674;-49
2022/03/13 04:58:23;;;;;;;;;35.00;29.00;;;;;21.29;34.65;102073.35;110314;1262;20880;-50
2022/03/13 05:00:51;;;;;;;;;29.33;29.00;;;;;21.30;34.79;102070.94;110246;1265;19485;-50
2022/03/13 05:03:18;;;;;;;;;37.00;31.00;;;;;21.29;34.81;102074.48;110258;1264;18857;-52
2022/03/13 05:05:45;;;;;;;;;41.67;30.67;;;;;21.29;34.61;102073.57;110221;1264;18898;-49
2022/03/13 05:08:13;;;;;;;;;32.00;29.33;;;;;21.29;34.74;102073.40;110307;1264;20784;-50
2022/03/13 05:10:40;;;;;;;;;36.00;30.67;;;;;21.29;34.48;102075.01;110242;1264;19167;-49
2022/03/13 05:13:08;;;;;;;;;29.00;28.33;;;;;21.29;34.71;102075.36;110239;1264;18848;-50
2022/03/13 05:15:36;;;;;;;;;35.67;31.33;;;;;21.30;34.58;102077.88;110279;1264;19434;-48
2022/03/13 05:18:03;;;;;;;;;32.67;31.67;;;;;21.29;34.79;102076.64;110254;1264;18860;-49
2022/03/13 05:20:31;;;;;;;;;34.67;32.00;;;;;21.29;34.69;102074.14;110258;1264;18790;-51
2022/03/13 05:22:58;;;;;;;;;30.00;28.00;;;;;21.29;34.66;102073.20;110224;1265;21044;-51
2022/03/13 05:25:28;;;;;;;;;37.50;30.00;;;;;21.29;34.68;102077.75;110269;1264;22328;-50
2022/03/13 05:27:55;;;;;;;;;36.67;33.00;;;;;21.29;34.75;102079.87;110256;1264;19128;-50
2022/03/13 05:30:22;;;;;;;;;35.67;32.00;;;;;21.29;34.77;102076.09;110235;1264;19668;-51
2022/03/13 05:32:49;;;;;;;;;36.33;31.67;;;;;21.31;34.78;102075.41;110211;1265;18708;-51
2022/03/13 05:35:17;;;;;;;;;36.00;31.00;;;;;21.34;34.59;102077.48;110300;1264;22380;-50
2022/03/13 05:37:44;;;;;;;;;35.00;30.33;;;;;21.38;34.41;102083.68;110253;1264;19572;-53
2022/03/13 05:40:13;;;;;;;;;33.67;31.67;;;;;21.36;34.46;102083.80;110269;1264;18793;-56
2022/03/13 05:42:41;;;;;;;;;35.67;32.00;;;;;21.37;34.64;102086.08;110235;1264;18703;-49
2022/03/13 05:45:10;;;;;;;;;36.00;33.00;;;;;21.36;34.64;102088.91;110196;1264;19910;-51
2022/03/13 05:47:37;;;;;;;;;38.00;32.00;;;;;21.37;34.88;102090.11;110210;1265;18709;-53
2022/03/13 05:50:04;;;;;;;;;31.67;30.67;;;;;21.37;34.69;102095.89;110248;1264;20314;-52
2022/03/13 05:52:32;;;;;;;;;39.00;32.67;;;;;21.38;34.69;102098.86;110236;1264;19531;-52
2022/03/13 05:54:59;;;;;;;;;36.00;33.00;;;;;21.40;34.77;102101.62;110232;1264;18687;-52
2022/03/13 05:57:27;;;;;;;;;36.00;33.00;;;;;21.42;34.61;102099.42;110269;1265;18784;-53
2022/03/13 05:59:54;;;;;;;;;36.00;28.67;;;;;21.45;34.53;102096.40;110269;1265;19637;-53
2022/03/13 06:02:22;;;;;;;;;35.33;31.67;;;;;21.48;34.65;102095.94;110236;1264;18855;-53
2022/03/13 06:04:51;;;;;;;;;36.00;30.33;;;;;21.49;34.55;102100.04;110260;1264;18794;-52
2022/03/13 06:07:18;;;;;;;;;36.00;31.50;;;;;21.52;34.71;102096.81;110220;1264;19649;-51
2022/03/13 06:09:46;;;;;;;;;40.67;32.33;;;;;21.55;34.87;102105.55;110232;1264;18663;-52
2022/03/13 06:12:17;;;;;;;;;45.00;37.00;;;;;21.61;34.82;102108.08;110199;1264;20196;-51
2022/03/13 06:14:44;;;;;;;;;39.00;33.50;;;;;21.68;34.70;102101.26;110208;1264;22970;-52
2022/03/13 06:17:12;;;;;;;;;36.67;33.33;;;;;21.74;34.68;102104.61;110218;1264;18728;-54
2022/03/13 06:19:42;;;;;;;;;39.00;33.33;;;;;21.79;34.94;102109.45;110227;1265;18829;-53
2022/03/13 06:22:10;;;;;;;;;32.67;31.33;;;;;21.82;34.93;102112.94;110186;1263;19499;-52
2022/03/13 06:24:37;;;;;;;;;35.00;31.33;;;;;21.86;35.50;102114.95;110249;1264;19009;-51
2022/03/13 06:27:05;;;;;;;;;35.50;32.00;;;;;21.91;35.62;102117.52;110227;1265;19504;-52
2022/03/13 06:29:32;;;;;;;;;37.00;33.00;;;;;21.95;35.64;102115.18;110248;1264;19451;-52
2022/03/13 06:31:59;;;;;;;;;38.50;32.50;;;;;21.98;35.80;102111.34;110319;1265;18836;-52
2022/03/13 06:34:27;;;;;;;;;36.00;32.00;;;;;22.03;35.69;102117.80;110204;1264;18997;-52
2022/03/13 06:36:54;;;;;;;;;36.50;31.50;;;;;22.06;35.91;102115.12;110242;1264;24889;-51
2022/03/13 06:39:22;;;;;;;;;37.50;30.50;;;;;22.10;35.82;102118.34;110282;1264;18779;-53
2022/03/13 06:41:49;;;;;;;;;47.67;39.00;;;;;22.12;35.71;102118.34;110265;1264;20538;-53
2022/03/13 06:44:16;;;;;;;;;38.33;35.67;;;;;22.11;35.34;102117.96;110241;1264;22881;-51
2022/03/13 06:46:43;;;;;;;;;35.67;32.33;;;;;22.13;35.45;102119.91;110256;1264;21393;-52
2022/03/13 06:49:10;;;;;;;;;37.50;33.50;;;;;22.25;35.74;102118.95;110139;1264;22015;-51
2022/03/13 06:51:38;;;;;;;;;38.00;32.67;;;;;22.35;35.77;102119.55;110120;1264;19719;-51
2022/03/13 06:54:06;;;;;;;;;38.00;34.00;;;;;22.41;35.88;102119.10;110030;1264;18993;-51
2022/03/13 06:56:33;;;;;;;;;36.33;32.67;;;;;22.44;36.14;102121.21;110140;1264;23036;-52
2022/03/13 06:59:03;;;;;;;;;38.00;34.67;;;;;22.46;36.30;102119.75;110271;1264;20127;-50
2022/03/13 07:01:30;;;;;;;;;37.00;34.50;;;;;22.49;36.17;102119.89;110234;1264;18978;-51
2022/03/13 07:03:57;;;;;;;;;37.67;33.67;;;;;22.50;36.34;102120.80;110209;1264;18984;-53
2022/03/13 07:06:24;;;;;;;;;41.00;35.00;;;;;22.49;36.60;102118.55;110252;1264;19725;-52
2022/03/13 07:08:52;;;;;;;;;37.00;31.00;;;;;22.50;36.44;102117.48;110263;1264;22392;-51
2022/03/13 07:11:19;;;;;;;;;33.67;30.00;;;;;22.51;36.46;102122.24;110334;1263;19178;-52
2022/03/13 07:13:46;;;;;;;;;42.50;34.00;;;;;22.50;36.49;102118.58;110263;1264;19954;-51
2022/03/13 07:16:15;;;;;;;;;38.33;34.00;;;;;22.46;36.35;102122.11;110209;1265;21246;-55
2022/03/13 07:18:43;;;;;;;;;41.33;37.67;;;;;22.46;36.08;102121.33;110240;1264;19161;-52
2022/03/13 07:21:10;;;;;;;;;35.67;33.67;;;;;22.52;36.29;102127.06;110211;1264;20031;-51
2022/03/13 07:23:37;;;;;;;;;43.67;33.67;;;;;22.57;36.37;102120.73;110158;1264;18949;-51
2022/03/13 07:26:04;;;;;;;;;38.00;32.00;;;;;22.59;36.74;102123.52;110272;1264;18778;-50
2022/03/13 07:28:32;;;;;;;;;39.00;31.67;;;;;22.63;36.54;102120.03;110275;1265;22363;-51
2022/03/13 07:30:59;;;;;;;;;34.00;30.00;;;;;22.63;36.76;102117.95;110099;1265;18814;-52
2022/03/13 07:33:26;;;;;;;;;39.00;31.00;;;;;22.63;36.89;102123.82;110211;1263;18790;-50
2022/03/13 07:35:55;;;;;;;;;39.50;34.00;;;;;22.63;36.85;102124.91;110273;1265;22160;-49
2022/03/13 07:38:22;;;;;;;;;35.00;32.00;;;;;22.68;37.22;102132.59;110283;1264;18989;-50
2022/03/13 07:40:50;;;;;;;;;38.67;34.00;;;;;22.73;37.26;102135.23;110289;1264;22189;-49
2022/03/13 07:43:17;;;;;;;;;30.67;28.33;;;;;22.77;37.09;102135.30;110222;1264;19420;-51
2022/03/13 07:45:44;;;;;;;;;38.50;34.50;;;;;22.80;37.29;102130.80;110172;1264;21956;-49
2022/03/13 07:48:11;;;;;;;;;33.00;30.33;;;;;22.82;37.37;102134.42;109990;1264;18896;-50
2022/03/13 07:50:39;;;;;;;;;35.67;27.67;;;;;22.77;37.27;102135.52;110117;1264;21007;-51
2022/03/13 07:53:06;;;;;;;;;33.33;31.33;;;;;22.76;37.02;102130.36;110157;1264;19373;-51
2022/03/13 07:55:33;;;;;;;;;33.67;31.33;;;;;22.78;36.96;102128.30;110257;1263;18813;-49
2022/03/13 07:58:01;;;;;;;;;33.00;30.50;;;;;22.83;37.08;102128.47;110256;1264;19588;-50
2022/03/13 08:00:28;;;;;;;;;34.67;31.00;;;;;22.92;37.19;102126.66;110241;1264;18888;-51
2022/03/13 08:02:55;;;;;;;;;39.33;35.33;;;;;22.97;37.56;102124.13;110242;1264;18988;-50
2022/03/13 08:05:22;;;;;;;;;36.00;31.50;;;;;23.02;37.84;102129.14;110316;1264;19643;-51
2022/03/13 08:07:50;;;;;;;;;33.00;32.00;;;;;23.04;37.90;102129.86;110290;1264;19995;-51
2022/03/13 08:10:20;;;;;;;;;36.00;33.00;;;;;23.07;37.99;102132.02;110216;1263;18705;-50
2022/03/13 08:12:48;;;;;;;;;37.00;34.00;;;;;23.02;37.94;102130.77;110159;1265;19476;-50
2022/03/13 08:15:15;;;;;;;;;31.00;28.67;;;;;22.97;38.32;102129.98;110142;1264;18663;-48
2022/03/13 08:17:43;;;;;;;;;38.00;29.67;;;;;22.96;38.32;102128.27;110068;1264;22184;-51
2022/03/13 08:20:10;;;;;;;;;28.00;28.00;;;;;22.98;38.33;102129.74;110293;1264;19644;-50
2022/03/13 08:22:38;;;;;;;;;36.67;31.00;;;;;23.00;38.03;102129.38;110268;1264;18894;-49
2022/03/13 08:25:05;;;;;;;;;36.00;30.67;;;;;23.04;38.04;102129.66;110298;1265;18820;-50
2022/03/13 08:27:32;;;;;;;;;31.33;30.00;;;;;23.06;37.81;102127.94;110218;1264;19555;-50
2022/03/13 08:30:00;;;;;;;;;30.33;28.33;;;;;23.10;37.92;102131.95;110248;1264;18788;-50
2022/03/13 08:32:27;;;;;;;;;33.00;29.00;;;;;23.09;37.84;102133.48;110206;1264;19459;-50
2022/03/13 08:34:54;;;;;;;;;35.00;32.50;;;;;23.06;37.77;102135.46;110201;1264;19643;-50
2022/03/13 08:37:22;;;;;;;;;35.00;31.50;;;;;23.08;37.66;102134.67;110204;1264;18825;-54
2022/03/13 08:39:49;;;;;;;;;32.00;27.00;;;;;23.08;37.83;102134.69;110135;1264;18878;-50
2022/03/13 08:42:17;;;;;;;;;31.50;28.50;;;;;23.10;38.02;102135.95;110071;1264;21242;-50
2022/03/13 08:44:44;;;;;;;;;25.00;24.00;;;;;23.09;38.05;102142.19;110135;1265;19048;-52
2022/03/13 08:47:11;;;;;;;;;27.50;26.00;;;;;23.11;37.99;102140.75;110249;1263;18976;-52
2022/03/13 08:49:39;;;;;;;;;33.67;27.00;;;;;23.10;37.74;102141.40;110143;1264;19528;-50
2022/03/13 08:52:06;;;;;;;;;30.00;28.00;;;;;23.05;37.77;102140.70;110121;1263;18883;-51
2022/03/13 08:54:34;;;;;;;;;46.50;42.00;;;;;22.66;33.94;102144.05;110244;1263;19862;-49
2022/03/13 08:57:02;;;;;;;;;48.67;42.00;;;;;21.48;26.48;102136.99;110229;1264;21587;-50
2022/03/13 08:59:34;;;;;;;;;46.33;40.67;;;;;21.46;27.62;102136.13;110265;1264;18962;-49
2022/03/13 09:02:01;;;;;;;;;46.67;41.33;;;;;22.04;27.65;102135.38;110322;1264;19101;-50
2022/03/13 09:04:29;;;;;;;;;50.67;41.00;;;;;22.45;27.53;102132.73;110273;1264;19919;-51
2022/03/13 09:06:57;;;;;;;;;54.00;44.00;;;;;22.50;27.81;102134.05;110192;1264;19012;-53
2022/03/13 09:09:24;;;;;;;;;58.33;45.67;;;;;22.51;28.16;102134.36;110226;1264;18819;-51
2022/03/13 09:11:51;;;;;;;;;59.00;47.00;;;;;22.55;28.38;102134.23;110271;1264;21715;-48
2022/03/13 09:14:19;;;;;;;;;57.33;45.33;;;;;22.61;29.21;102139.63;110273;1264;18762;-50
2022/03/13 09:16:46;;;;;;;;;57.67;46.67;;;;;22.56;29.13;102142.00;110249;1264;21246;-50
2022/03/13 09:19:13;;;;;;;;;62.00;51.00;;;;;22.34;28.12;102142.72;110266;1264;19550;-49
2022/03/13 09:21:41;;;;;;;;;59.33;49.67;;;;;22.11;27.31;102141.64;110202;1263;22462;-47
2022/03/13 09:24:08;;;;;;;;;63.00;50.00;;;;;22.01;26.68;102139.66;110233;1264;22135;-48
2022/03/13 09:26:35;;;;;;;;;65.00;51.33;;;;;21.93;26.19;102135.84;110220;1264;20095;-51
2022/03/13 09:29:03;;;;;;;;;61.50;51.00;;;;;21.89;24.97;102135.78;110296;1264;18757;-51
2022/03/13 09:31:30;;;;;;;;;64.67;51.00;;;;;21.77;24.50;102138.77;110228;1263;19059;-50
2022/03/13 09:33:57;;;;;;;;;61.33;50.67;;;;;21.74;24.16;102137.25;110235;1264;22142;-50
2022/03/13 09:36:25;;;;;;;;;61.33;50.33;;;;;21.78;23.58;102139.36;110245;1264;18656;-50
2022/03/13 09:38:52;;;;;;;;;59.50;47.50;;;;;21.64;23.30;102132.18;110210;1265;18850;-51
2022/03/13 09:41:19;;;;;;;;;61.33;52.00;;;;;21.58;23.58;102134.01;110287;1264;19477;-49
2022/03/13 09:43:46;;;;;;;;;56.50;47.00;;;;;21.65;23.62;102128.70;110285;1264;22154;-53
2022/03/13 09:46:16;;;;;;;;;55.67;47.33;;;;;21.72;23.68;102131.64;110214;1263;22204;-50
2022/03/13 09:48:43;;;;;;;;;52.33;45.33;;;;;21.64;23.44;102128.76;110252;1264;19803;-50
2022/03/13 09:51:10;;;;;;;;;59.67;46.00;;;;;21.61;24.07;102131.73;110237;1264;18975;-50
2022/03/13 09:53:37;;;;;;;;;53.00;44.00;;;;;21.62;23.57;102128.92;110131;1264;18843;-51
2022/03/13 09:56:05;;;;;;;;;50.00;43.50;;;;;21.65;23.29;102128.67;110254;1264;19610;-50
2022/03/13 09:58:32;;;;;;;;;49.00;42.67;;;;;21.76;23.33;102127.54;110174;1264;18764;-52
2022/03/13 10:00:59;;;;;;;;;49.67;42.00;;;;;21.81;22.92;102128.52;110207;1265;18858;-51
2022/03/13 10:03:26;;;;;;;;;48.67;43.67;;;;;21.81;22.98;102121.55;110225;1264;19559;-50
2022/03/13 10:05:54;;;;;;;;;45.50;42.00;;;;;21.81;22.83;102121.02;110181;1264;24512;-49
2022/03/13 10:08:22;;;;;;;;;43.00;39.67;;;;;21.78;22.40;102126.45;110233;1264;22255;-51
2022/03/13 10:10:49;;;;;;;;;47.00;42.00;;;;;21.71;21.91;102124.91;110141;1264;19412;-51
2022/03/13 10:13:17;;;;;;;;;47.00;42.00;;;;;21.71;22.01;102121.39;110178;1263;18700;-50
2022/03/13 10:15:46;;;;;;;;;45.50;41.00;;;;;21.74;21.95;102119.41;110108;1263;18900;-51
2022/03/13 10:18:13;;;;;;;;;51.00;41.00;;;;;21.75;22.24;102116.59;110094;1264;19668;-50
2022/03/13 10:20:41;;;;;;;;;45.67;40.00;;;;;21.78;22.58;102115.52;110205;1264;18637;-51
2022/03/13 10:23:11;;;;;;;;;42.00;40.50;;;;;21.68;22.45;102112.35;110267;1264;18798;-51
2022/03/13 10:25:38;;;;;;;;;48.00;41.00;;;;;21.70;23.08;102106.13;110225;1265;19516;-50
2022/03/13 10:28:06;;;;;;;;;44.33;40.00;;;;;21.77;22.75;102105.13;110130;1264;18664;-50
2022/03/13 10:30:33;;;;;;;;;45.50;40.50;;;;;21.58;22.24;102101.66;110225;1264;21948;-50
2022/03/13 10:33:00;;;;;;;;;41.00;37.67;;;;;21.65;22.89;102099.00;110227;1264;19477;-50
2022/03/13 10:35:28;;;;;;;;;49.33;40.33;;;;;21.80;23.62;102098.41;110218;1263;18699;-53
2022/03/13 10:37:55;;;;;;;;;42.00;39.33;;;;;21.91;23.89;102096.76;110278;1265;18860;-50
2022/03/13 10:40:23;;;;;;;;;41.50;38.50;;;;;21.99;24.53;102088.16;110209;1264;19687;-50
2022/03/13 10:42:50;;;;;;;;;41.00;36.00;;;;;22.05;24.98;102094.98;110171;1264;18817;-51
2022/03/13 10:45:18;;;;;;;;;38.67;37.00;;;;;22.08;25.35;102093.08;110282;1264;22791;-50
2022/03/13 10:47:46;;;;;;;;;38.33;35.00;;;;;22.08;25.81;102096.91;110266;1263;22973;-51
2022/03/13 10:50:13;;;;;;;;;34.00;32.67;;;;;22.09;26.15;102091.74;110291;1264;18890;-53
2022/03/13 10:52:45;;;;;;;;;34.00;33.33;;;;;22.09;26.56;102090.56;110211;1264;18786;-51
2022/03/13 10:55:12;;;;;;;;;33.00;32.33;;;;;22.08;27.17;102088.52;110238;1265;19853;-53
2022/03/13 10:57:39;;;;;;;;;29.67;29.67;;;;;22.09;27.51;102087.66;110177;1264;19128;-50
2022/03/13 11:00:07;;;;;;;;;36.67;33.00;;;;;22.09;27.82;102087.69;110401;1262;19003;-53
2022/03/13 11:02:34;;;;;;;;;35.00;33.00;;;;;22.09;28.16;102086.27;110443;1261;19666;-50